Cordoba, Argentina
Current Conditions -  °F | °C
As of 3:00 AM on Sunday 21 Dec 2014 (Local Time) from SACO Reporting Station
Moderate Rain Moderate Rain  
Wind Chill: 55°   Ceiling: 5000
Heat Index: 55°   Visibility: 6mi
Dew Point: 45°   Wind: 12mph
Humidity: 67%   Direction: 230°SW
Pressure: 29.91"   Gusts: NA
Location:  31.4°S, 64.19°W
Report Text: SACO 210600Z 23010KT 9000 RA SCT030BKN050 13/07 Q1013
Loading
Personal Weather Stations






























Interactive Weather Map New forecast layout! Learn more

10-Day Weather Forecast

Advertisements
Track Severe Weather on mobile